createdAt,value
2022-10-09T00:01:31.077Z,23.00
2022-10-09T00:04:00.773Z,23.60
2022-10-09T00:06:32.230Z,22.70
2022-10-09T00:09:02.040Z,22.13
2022-10-09T00:11:31.977Z,25.00
2022-10-09T00:14:01.857Z,24.20
2022-10-09T00:16:31.005Z,24.87
2022-10-09T00:19:00.248Z,23.77
2022-10-09T00:21:30.844Z,26.17
2022-10-09T00:24:01.123Z,29.10
2022-10-09T00:26:29.847Z,24.30
2022-10-09T00:28:58.912Z,25.80
2022-10-09T00:31:29.161Z,26.17
2022-10-09T00:33:57.706Z,24.30
2022-10-09T00:36:27.407Z,22.97
2022-10-09T00:38:56.101Z,26.60
2022-10-09T00:41:26.183Z,23.90
2022-10-09T00:43:56.494Z,22.93
2022-10-09T00:46:33.760Z,21.37
2022-10-09T00:49:14.821Z,20.53
2022-10-09T00:51:47.386Z,20.00
2022-10-09T00:54:18.366Z,20.73
2022-10-09T00:56:46.710Z,18.40
2022-10-09T00:59:15.829Z,19.77
2022-10-09T01:01:45.699Z,19.67
2022-10-09T01:04:14.309Z,17.97
2022-10-09T01:06:55.554Z,17.23
2022-10-09T01:09:30.328Z,17.67
2022-10-09T01:12:04.159Z,16.77
2022-10-09T01:14:37.633Z,16.07
2022-10-09T01:17:15.495Z,14.90
2022-10-09T01:20:04.451Z,14.13
2022-10-09T01:22:48.306Z,13.90
2022-10-09T01:25:24.940Z,13.37
2022-10-09T01:27:55.882Z,12.87
2022-10-09T01:30:25.211Z,13.50
2022-10-09T01:32:55.521Z,12.93
2022-10-09T01:35:25.183Z,13.77
2022-10-09T01:37:55.355Z,12.40
2022-10-09T01:40:25.532Z,13.33
2022-10-09T01:42:56.133Z,13.53
2022-10-09T01:45:24.600Z,13.03
2022-10-09T01:47:53.163Z,13.20
2022-10-09T01:50:27.452Z,12.27
2022-10-09T01:52:57.871Z,12.53
2022-10-09T01:55:40.663Z,11.93
2022-10-09T01:58:15.934Z,12.83
2022-10-09T02:00:48.446Z,13.27
2022-10-09T02:03:20.180Z,12.63
2022-10-09T02:05:51.474Z,12.00
2022-10-09T02:08:23.003Z,13.10
2022-10-09T02:10:54.026Z,13.43
2022-10-09T02:13:24.524Z,11.87
2022-10-09T02:15:55.136Z,11.43
2022-10-09T02:18:30.773Z,11.90
2022-10-09T02:21:05.971Z,12.43
2022-10-09T02:23:36.252Z,12.77
2022-10-09T02:26:04.610Z,12.90
2022-10-09T02:28:34.458Z,13.17
2022-10-09T02:31:08.386Z,12.93
2022-10-09T02:33:36.810Z,12.80
2022-10-09T02:36:05.391Z,12.17
2022-10-09T02:38:33.737Z,12.50
2022-10-09T02:41:02.454Z,11.23
2022-10-09T02:43:30.803Z,12.40
2022-10-09T02:46:00.506Z,12.67
2022-10-09T02:48:28.798Z,11.90
2022-10-09T02:50:57.076Z,12.13
2022-10-09T02:53:25.334Z,12.07
2022-10-09T02:55:55.226Z,11.80
2022-10-09T02:58:23.557Z,11.73
2022-10-09T03:00:52.217Z,12.07
2022-10-09T03:03:22.410Z,11.90
2022-10-09T03:06:00.121Z,12.77
2022-10-09T03:08:28.541Z,12.10
2022-10-09T03:10:57.236Z,13.10
2022-10-09T03:13:25.843Z,12.20
2022-10-09T03:15:54.213Z,11.37
2022-10-09T03:18:23.958Z,11.37
2022-10-09T03:20:52.274Z,11.67
2022-10-09T03:23:20.866Z,10.90
2022-10-09T03:25:58.139Z,10.83
2022-10-09T03:28:26.980Z,10.67
2022-10-09T03:30:55.970Z,10.47
2022-10-09T03:33:26.012Z,9.93
2022-10-09T03:35:56.402Z,10.37
2022-10-09T03:38:25.273Z,9.53
2022-10-09T03:40:56.129Z,10.10
2022-10-09T03:43:24.391Z,9.53
2022-10-09T03:45:54.079Z,9.87
2022-10-09T03:48:23.122Z,8.43
2022-10-09T03:50:53.245Z,9.07
2022-10-09T03:53:21.535Z,8.07
2022-10-09T03:55:49.819Z,8.10
2022-10-09T03:58:18.113Z,7.57
2022-10-09T04:00:46.747Z,7.83
2022-10-09T04:03:15.051Z,7.60
2022-10-09T04:05:43.367Z,6.97
2022-10-09T04:08:13.227Z,7.60
2022-10-09T04:10:41.563Z,7.00
2022-10-09T04:13:12.441Z,6.90
2022-10-09T04:15:40.737Z,6.47
2022-10-09T04:18:10.575Z,6.60
2022-10-09T04:20:38.901Z,6.60
2022-10-09T04:23:07.221Z,6.40
2022-10-09T04:25:36.920Z,6.37
2022-10-09T04:28:05.239Z,6.60
2022-10-09T04:30:33.624Z,5.90
2022-10-09T04:33:01.922Z,5.93
2022-10-09T04:35:30.231Z,6.27
2022-10-09T04:37:58.487Z,6.30
2022-10-09T04:40:26.841Z,6.20
2022-10-09T04:42:56.503Z,5.60
2022-10-09T04:45:24.801Z,6.03
2022-10-09T04:47:53.101Z,5.90
2022-10-09T04:50:21.422Z,5.80
2022-10-09T04:52:50.056Z,5.90
2022-10-09T04:55:18.674Z,5.87
2022-10-09T04:57:46.948Z,5.70
2022-10-09T05:00:17.348Z,6.20
2022-10-09T05:02:45.750Z,6.00
2022-10-09T05:05:14.139Z,5.37
2022-10-09T05:07:42.473Z,5.70
2022-10-09T05:10:11.055Z,5.73
2022-10-09T05:12:39.314Z,6.27
2022-10-09T05:15:08.640Z,5.73
2022-10-09T05:17:38.382Z,5.80
2022-10-09T05:20:07.470Z,5.43
2022-10-09T05:22:35.738Z,5.60
2022-10-09T05:25:04.441Z,5.70
2022-10-09T05:27:32.764Z,5.70
2022-10-09T05:30:01.046Z,5.37
2022-10-09T05:32:29.397Z,5.43
2022-10-09T05:34:59.117Z,5.43
2022-10-09T05:37:27.414Z,5.43
2022-10-09T05:39:55.672Z,5.23
2022-10-09T05:42:23.980Z,5.60
2022-10-09T05:44:52.271Z,6.00
2022-10-09T05:47:20.538Z,5.93
2022-10-09T05:49:48.804Z,5.90
2022-10-09T05:52:18.501Z,5.80
2022-10-09T05:54:46.775Z,5.53
2022-10-09T05:57:15.055Z,5.90
2022-10-09T05:59:43.941Z,5.47
2022-10-09T06:02:12.320Z,5.33
2022-10-09T06:04:40.665Z,5.20
2022-10-09T06:07:09.019Z,5.50
2022-10-09T06:09:38.667Z,5.20
2022-10-09T06:12:07.003Z,5.90
2022-10-09T06:14:35.333Z,4.77
2022-10-09T06:17:03.712Z,4.97
2022-10-09T06:19:32.121Z,5.50
2022-10-09T06:22:00.457Z,5.10
2022-10-09T06:24:29.618Z,5.90
2022-10-09T06:26:59.482Z,4.93
2022-10-09T06:29:27.973Z,4.83
2022-10-09T06:31:56.307Z,5.13
2022-10-09T06:34:25.053Z,4.93
2022-10-09T06:36:53.395Z,5.30
2022-10-09T06:39:22.645Z,5.47
2022-10-09T06:41:50.922Z,5.27
2022-10-09T06:44:20.607Z,5.43
2022-10-09T06:46:51.132Z,4.93
2022-10-09T06:49:19.542Z,5.00
2022-10-09T06:51:47.858Z,5.00
2022-10-09T06:54:17.602Z,5.03
2022-10-09T06:56:46.493Z,5.00
2022-10-09T06:59:14.997Z,5.00
2022-10-09T07:01:50.621Z,5.10
2022-10-09T07:04:18.941Z,5.07
2022-10-09T07:06:48.290Z,4.80
2022-10-09T07:09:17.467Z,4.90
2022-10-09T07:11:49.176Z,4.60
2022-10-09T07:14:18.446Z,5.33
2022-10-09T07:16:49.169Z,5.23
2022-10-09T07:19:19.295Z,5.43
2022-10-09T07:21:49.850Z,5.17
2022-10-09T07:24:20.697Z,5.33
2022-10-09T07:26:49.800Z,4.60
2022-10-09T07:29:20.252Z,5.60
2022-10-09T07:31:50.812Z,4.67
2022-10-09T07:34:19.100Z,4.83
2022-10-09T07:36:47.378Z,5.30
2022-10-09T07:39:15.765Z,5.47
2022-10-09T07:41:44.677Z,5.83
2022-10-09T07:44:13.280Z,6.33
2022-10-09T07:46:41.652Z,5.37
2022-10-09T07:49:12.658Z,5.73
2022-10-09T07:51:40.998Z,5.93
2022-10-09T07:54:09.296Z,5.90
2022-10-09T07:56:39.061Z,5.50
2022-10-09T07:59:09.350Z,6.30
2022-10-09T08:01:38.318Z,6.43
2022-10-09T08:04:07.735Z,5.97
2022-10-09T08:06:37.441Z,6.60
2022-10-09T08:09:06.993Z,6.87
2022-10-09T08:11:35.890Z,7.30
2022-10-09T08:14:04.214Z,7.33
2022-10-09T08:16:33.618Z,6.90
2022-10-09T08:19:03.275Z,7.03
2022-10-09T08:21:34.033Z,7.40
2022-10-09T08:24:03.632Z,6.60
2022-10-09T08:26:32.411Z,6.60
2022-10-09T08:29:02.253Z,6.77
2022-10-09T08:31:31.898Z,6.93
2022-10-09T08:34:03.501Z,7.13
2022-10-09T08:36:32.399Z,6.17
2022-10-09T08:39:00.723Z,6.30
2022-10-09T08:41:43.214Z,6.43
2022-10-09T08:44:18.865Z,5.77
2022-10-09T08:46:56.660Z,5.93
2022-10-09T08:49:29.706Z,6.07
2022-10-09T08:52:02.002Z,6.07
2022-10-09T08:54:34.806Z,6.17
2022-10-09T08:57:05.813Z,5.17
2022-10-09T08:59:34.132Z,5.80
2022-10-09T09:02:16.492Z,5.20
2022-10-09T09:04:58.300Z,5.00
2022-10-09T09:07:32.855Z,5.77
2022-10-09T09:10:06.845Z,5.47
2022-10-09T09:12:48.361Z,5.03
2022-10-09T09:15:36.227Z,4.80
2022-10-09T09:18:17.294Z,5.67
2022-10-09T09:20:53.471Z,4.80
2022-10-09T09:26:04.344Z,5.17
2022-10-09T09:28:36.194Z,4.67
2022-10-09T09:31:09.617Z,4.70
2022-10-09T09:33:44.818Z,4.93
2022-10-09T09:36:19.923Z,5.00
2022-10-09T09:39:26.086Z,5.13
2022-10-09T09:41:37.822Z,4.67
2022-10-09T09:44:08.941Z,4.60
2022-10-09T09:46:38.839Z,4.30
2022-10-09T09:49:17.438Z,4.87
2022-10-09T09:51:46.576Z,4.50
2022-10-09T09:54:20.469Z,4.70
2022-10-09T09:59:41.481Z,5.07
2022-10-09T10:02:14.699Z,4.60
2022-10-09T10:04:51.876Z,5.00
2022-10-09T10:07:31.121Z,4.53
2022-10-09T10:10:20.980Z,5.20
2022-10-09T10:12:56.707Z,4.90
2022-10-09T10:15:30.746Z,5.00
2022-10-09T10:18:05.076Z,4.77
2022-10-09T10:20:42.875Z,5.53
2022-10-09T10:26:23.695Z,4.90
2022-10-09T10:28:57.996Z,4.90
2022-10-09T10:31:46.260Z,4.83
2022-10-09T10:34:20.562Z,5.00
2022-10-09T10:36:52.166Z,4.53
2022-10-09T10:39:28.344Z,4.67
2022-10-09T10:42:00.970Z,4.60
2022-10-09T10:44:40.349Z,4.83
2022-10-09T10:50:20.353Z,4.83
2022-10-09T10:53:06.578Z,4.43
2022-10-09T10:55:44.212Z,4.77
2022-10-09T10:58:26.519Z,5.17
2022-10-09T11:01:11.315Z,4.50
2022-10-09T11:04:05.446Z,4.30
2022-10-09T11:06:41.432Z,4.10
2022-10-09T11:09:19.665Z,4.30
2022-10-09T11:11:54.154Z,4.27
2022-10-09T11:14:38.490Z,4.00
2022-10-09T11:17:15.486Z,4.30
2022-10-09T11:20:07.643Z,4.20
2022-10-09T11:22:47.872Z,4.10
2022-10-09T11:25:27.472Z,3.80
2022-10-09T11:28:00.123Z,4.47
2022-10-09T11:30:31.603Z,3.97
2022-10-09T11:33:05.134Z,3.80
2022-10-09T11:35:41.777Z,3.77
2022-10-09T11:38:23.866Z,4.03
2022-10-09T11:40:52.914Z,3.63
2022-10-09T11:43:41.617Z,3.93
2022-10-09T11:46:18.253Z,4.23
2022-10-09T11:48:51.822Z,3.50
2022-10-09T11:51:29.883Z,3.60
2022-10-09T11:53:58.599Z,3.73
2022-10-09T11:56:28.394Z,3.43
2022-10-09T11:59:00.855Z,3.60
2022-10-09T12:01:34.600Z,3.33
2022-10-09T12:04:06.997Z,3.67
2022-10-09T12:06:48.661Z,3.80
2022-10-09T12:09:25.002Z,3.50
2022-10-09T12:11:59.388Z,3.33
2022-10-09T12:14:29.231Z,3.37
2022-10-09T12:16:58.299Z,3.57
2022-10-09T12:19:29.087Z,3.27
2022-10-09T12:22:05.324Z,3.20
2022-10-09T12:24:39.495Z,3.30
2022-10-09T12:27:09.244Z,3.20
2022-10-09T12:29:45.875Z,3.43
2022-10-09T12:32:19.595Z,3.40
2022-10-09T12:34:50.635Z,3.20
2022-10-09T12:37:22.268Z,3.30
2022-10-09T12:39:51.456Z,3.07
2022-10-09T12:42:24.159Z,3.17
2022-10-09T12:44:55.410Z,3.20
2022-10-09T12:47:26.847Z,3.10
2022-10-09T12:50:04.782Z,3.07
2022-10-09T12:52:34.446Z,3.17
2022-10-09T12:55:03.680Z,3.17
2022-10-09T12:57:32.168Z,2.97
2022-10-09T13:00:00.644Z,3.23
2022-10-09T13:02:29.009Z,3.43
2022-10-09T13:05:00.104Z,3.97
2022-10-09T13:07:30.347Z,3.00
2022-10-09T13:10:03.632Z,3.43
2022-10-09T13:12:33.636Z,3.03
2022-10-09T13:15:03.502Z,3.10
2022-10-09T13:17:34.334Z,3.23
2022-10-09T13:20:23.879Z,3.10
2022-10-09T13:22:56.124Z,3.40
2022-10-09T13:25:26.411Z,3.83
2022-10-09T13:27:54.808Z,3.57
2022-10-09T13:30:23.707Z,3.47
2022-10-09T13:32:51.977Z,3.43
2022-10-09T13:35:20.440Z,3.80
2022-10-09T13:37:49.064Z,3.77
2022-10-09T13:40:20.867Z,3.50
2022-10-09T13:42:53.981Z,3.60
2022-10-09T13:45:22.986Z,3.57
2022-10-09T13:47:51.784Z,3.70
2022-10-09T13:50:20.859Z,3.33
2022-10-09T13:52:49.083Z,3.73
2022-10-09T13:55:17.498Z,3.67
2022-10-09T13:57:45.715Z,3.43
2022-10-09T14:00:16.180Z,3.70
2022-10-09T14:02:44.462Z,3.70
2022-10-09T14:05:12.833Z,3.77
2022-10-09T14:07:41.115Z,3.70
2022-10-09T14:10:10.203Z,3.57
2022-10-09T14:12:38.446Z,3.70
2022-10-09T14:15:08.086Z,3.70
2022-10-09T14:17:37.665Z,4.23
2022-10-09T14:20:06.786Z,3.93
2022-10-09T14:22:35.053Z,3.70
2022-10-09T14:25:03.646Z,4.30
2022-10-09T14:27:32.033Z,3.60
2022-10-09T14:30:00.463Z,3.67
2022-10-09T14:32:28.807Z,3.70
2022-10-09T14:34:58.469Z,3.70
2022-10-09T14:37:41.057Z,3.83
2022-10-09T14:40:11.149Z,3.53
2022-10-09T14:42:40.013Z,3.63
2022-10-09T14:45:10.084Z,3.60
2022-10-09T14:47:38.429Z,3.80
2022-10-09T14:50:09.093Z,3.93
2022-10-09T14:52:37.431Z,3.90
2022-10-09T14:55:06.399Z,3.40
2022-10-09T14:57:35.723Z,3.73
2022-10-09T15:00:05.897Z,3.93
2022-10-09T15:02:34.224Z,3.50
2022-10-09T15:05:02.571Z,3.50
2022-10-09T15:07:33.746Z,4.10
2022-10-09T15:10:02.029Z,3.90
2022-10-09T15:12:30.311Z,4.23
2022-10-09T15:14:58.647Z,4.20
2022-10-09T15:17:26.956Z,3.87
2022-10-09T15:19:55.230Z,3.30
2022-10-09T15:22:23.516Z,3.77
2022-10-09T15:24:53.223Z,3.67
2022-10-09T15:27:21.546Z,2.90
2022-10-09T15:29:49.871Z,3.37
2022-10-09T15:32:18.187Z,3.30
2022-10-09T15:34:46.480Z,3.50
2022-10-09T15:37:14.950Z,3.37
2022-10-09T15:39:43.434Z,3.00
2022-10-09T15:42:13.266Z,3.40
2022-10-09T15:44:44.220Z,3.17
2022-10-09T15:47:16.621Z,3.33
2022-10-09T15:49:46.577Z,3.40
2022-10-09T15:52:16.402Z,3.60
2022-10-09T15:54:44.755Z,3.60
2022-10-09T15:57:14.492Z,3.50
2022-10-09T15:59:42.930Z,3.67
2022-10-09T16:02:11.311Z,3.63
2022-10-09T16:04:39.582Z,3.10
2022-10-09T16:07:07.893Z,3.20
2022-10-09T16:09:36.867Z,3.27
2022-10-09T16:12:05.621Z,3.27
2022-10-09T16:14:35.269Z,3.07
2022-10-09T16:17:05.531Z,3.20
2022-10-09T16:19:35.941Z,3.27
2022-10-09T16:22:05.322Z,3.57
2022-10-09T16:24:40.243Z,3.10
2022-10-09T16:27:08.558Z,3.20
2022-10-09T16:29:38.268Z,3.53
2022-10-09T16:32:06.814Z,3.27
2022-10-09T16:34:35.418Z,3.30
2022-10-09T16:37:03.823Z,3.23
2022-10-09T16:39:32.448Z,3.50
2022-10-09T16:42:03.937Z,3.57
2022-10-09T16:44:32.655Z,3.23
2022-10-09T16:47:02.360Z,3.30
2022-10-09T16:49:30.625Z,3.70
2022-10-09T16:51:58.955Z,3.50
2022-10-09T16:54:27.263Z,3.70
2022-10-09T16:56:55.618Z,3.40
2022-10-09T16:59:24.074Z,3.83
2022-10-09T17:01:53.246Z,3.80
2022-10-09T17:04:22.904Z,3.40
2022-10-09T17:06:52.346Z,3.40
2022-10-09T17:09:21.692Z,3.47
2022-10-09T17:11:50.264Z,3.57
2022-10-09T17:14:18.623Z,3.80
2022-10-09T17:16:46.922Z,3.63
2022-10-09T17:19:15.872Z,3.77
2022-10-09T17:21:45.584Z,3.73
2022-10-09T17:27:10.127Z,3.33
2022-10-09T17:29:38.601Z,3.93
2022-10-09T17:32:09.363Z,3.77
2022-10-09T17:34:43.034Z,4.20
2022-10-09T17:37:12.995Z,3.97
2022-10-09T17:39:44.765Z,4.30
2022-10-09T17:42:14.823Z,4.73
2022-10-09T17:44:43.107Z,5.63
2022-10-09T17:47:11.400Z,4.97
2022-10-09T17:49:39.866Z,5.63
2022-10-09T17:52:08.339Z,7.60
2022-10-09T17:54:38.018Z,7.87
2022-10-09T17:57:07.177Z,5.80
2022-10-09T17:59:35.518Z,4.60
2022-10-09T18:02:03.795Z,4.90
2022-10-09T18:04:32.197Z,5.50
2022-10-09T18:07:00.495Z,4.57
2022-10-09T18:09:28.811Z,4.57
2022-10-09T18:11:58.473Z,4.33
2022-10-09T18:14:26.794Z,4.23
2022-10-09T18:16:55.119Z,4.50
2022-10-09T18:19:23.559Z,4.30
2022-10-09T18:21:51.997Z,4.17
2022-10-09T18:24:23.185Z,4.00
2022-10-09T18:26:51.987Z,4.50
2022-10-09T18:29:21.839Z,4.30
2022-10-09T18:31:55.483Z,4.10
2022-10-09T18:34:28.574Z,3.93
2022-10-09T18:36:58.526Z,4.57
2022-10-09T18:39:27.090Z,4.33
2022-10-09T18:41:58.170Z,3.90
2022-10-09T18:44:27.882Z,4.20
2022-10-09T18:46:58.159Z,4.33
2022-10-09T18:49:30.283Z,4.30
2022-10-09T18:52:00.101Z,4.13
2022-10-09T18:54:30.577Z,4.67
2022-10-09T18:56:59.262Z,4.67
2022-10-09T18:59:29.535Z,4.37
2022-10-09T19:01:57.852Z,4.67
2022-10-09T19:04:26.147Z,5.10
2022-10-09T19:06:55.386Z,4.67
2022-10-09T19:09:25.030Z,4.47
2022-10-09T19:11:53.750Z,5.00
2022-10-09T19:14:23.302Z,3.93
2022-10-09T19:16:53.118Z,4.57
2022-10-09T19:19:21.620Z,4.47
2022-10-09T19:21:50.318Z,4.53
2022-10-09T19:24:19.175Z,4.47
2022-10-09T19:26:48.059Z,5.37
2022-10-09T19:29:16.933Z,4.50
2022-10-09T19:31:45.376Z,5.10
2022-10-09T19:34:15.474Z,4.43
2022-10-09T19:36:44.979Z,4.87
2022-10-09T19:39:14.056Z,5.70
2022-10-09T19:41:43.772Z,5.47
2022-10-09T19:44:13.381Z,6.20
2022-10-09T19:46:42.347Z,5.70
2022-10-09T19:49:11.256Z,5.37
2022-10-09T19:51:42.013Z,5.60
2022-10-09T19:54:11.463Z,5.60
2022-10-09T19:56:41.729Z,5.77
2022-10-09T19:59:10.770Z,5.43
2022-10-09T20:01:40.709Z,5.27
2022-10-09T20:04:11.752Z,5.40
2022-10-09T20:06:43.434Z,5.60
2022-10-09T20:09:13.869Z,5.50
2022-10-09T20:11:42.951Z,5.10
2022-10-09T20:14:12.242Z,5.10
2022-10-09T20:16:41.138Z,5.77
2022-10-09T20:19:09.646Z,5.83
2022-10-09T20:21:37.938Z,4.97
2022-10-09T20:24:08.415Z,5.20
2022-10-09T20:26:40.990Z,5.17
2022-10-09T20:29:11.581Z,5.00
2022-10-09T20:31:40.006Z,5.10
2022-10-09T20:34:08.351Z,4.97
2022-10-09T20:36:39.214Z,4.70
2022-10-09T20:39:11.779Z,5.17
2022-10-09T20:41:41.319Z,5.40
2022-10-09T20:44:10.324Z,5.13
2022-10-09T20:46:40.583Z,5.13
2022-10-09T20:49:12.108Z,4.63
2022-10-09T20:51:41.567Z,5.03
2022-10-09T20:54:16.738Z,4.20
2022-10-09T20:56:45.576Z,4.13
2022-10-09T20:59:14.320Z,5.47
2022-10-09T21:01:42.951Z,4.80
2022-10-09T21:04:12.288Z,5.03
2022-10-09T21:06:40.642Z,4.80
2022-10-09T21:09:10.599Z,4.63
2022-10-09T21:11:40.482Z,4.93
2022-10-09T21:14:10.827Z,4.77
2022-10-09T21:16:39.512Z,4.97
2022-10-09T21:19:07.974Z,4.90
2022-10-09T21:21:36.307Z,4.60
2022-10-09T21:24:04.959Z,4.97
2022-10-09T21:26:36.072Z,4.50
2022-10-09T21:29:05.961Z,4.70
2022-10-09T21:31:34.726Z,4.60
2022-10-09T21:34:03.407Z,4.43
2022-10-09T21:36:36.903Z,4.23
2022-10-09T21:39:07.054Z,4.50
2022-10-09T21:41:39.708Z,4.23
2022-10-09T21:44:08.418Z,4.47
2022-10-09T21:46:38.205Z,4.67
2022-10-09T21:49:08.058Z,4.40
2022-10-09T21:51:36.366Z,4.93
2022-10-09T21:54:04.673Z,4.40
2022-10-09T21:56:32.947Z,4.50
2022-10-09T21:59:02.640Z,4.67
2022-10-09T22:01:30.992Z,4.17
2022-10-09T22:03:59.294Z,4.20
2022-10-09T22:06:27.603Z,4.47
2022-10-09T22:08:55.881Z,4.50
2022-10-09T22:11:24.164Z,4.60
2022-10-09T22:13:52.447Z,4.40
2022-10-09T22:16:22.192Z,4.60
2022-10-09T22:18:50.493Z,4.30
2022-10-09T22:21:19.178Z,4.07
2022-10-09T22:23:47.524Z,4.20
2022-10-09T22:26:18.295Z,4.10
2022-10-09T22:28:47.204Z,4.27
2022-10-09T22:31:17.103Z,3.93
2022-10-09T22:33:51.302Z,4.27
2022-10-09T22:36:21.632Z,3.70
2022-10-09T22:38:50.283Z,4.10
2022-10-09T22:41:20.611Z,3.63
2022-10-09T22:43:51.547Z,3.53
2022-10-09T22:46:21.569Z,4.03
2022-10-09T22:48:52.234Z,3.77
2022-10-09T22:51:21.730Z,3.90
2022-10-09T22:53:50.357Z,3.80
2022-10-09T22:56:20.527Z,3.63
2022-10-09T22:58:49.508Z,3.40
2022-10-09T23:01:20.567Z,3.27
2022-10-09T23:03:50.272Z,3.33
2022-10-09T23:06:20.993Z,3.43
2022-10-09T23:08:50.246Z,3.20
2022-10-09T23:11:20.168Z,3.47
2022-10-09T23:13:49.332Z,3.60
2022-10-09T23:16:17.610Z,3.50
2022-10-09T23:18:45.908Z,3.77
2022-10-09T23:21:20.260Z,3.40
2022-10-09T23:23:49.396Z,3.40
2022-10-09T23:26:20.240Z,3.10
2022-10-09T23:28:51.144Z,3.30
2022-10-09T23:31:19.747Z,3.17
2022-10-09T23:33:48.490Z,3.20
2022-10-09T23:36:20.638Z,2.97
2022-10-09T23:38:49.603Z,3.03
2022-10-09T23:41:19.346Z,3.33
2022-10-09T23:43:48.733Z,3.10
2022-10-09T23:46:18.750Z,3.10
2022-10-09T23:48:47.945Z,3.20
2022-10-09T23:51:18.384Z,3.00
2022-10-09T23:53:46.868Z,3.00
2022-10-09T23:56:18.638Z,2.93
2022-10-09T23:58:47.500Z,2.93
